Frisco, Texas
Current Conditions -  °F | °C
As of 1:15 AM on Saturday 29 Nov 2014 (Local Time) from KADS Reporting Station
Clear Clear  
Wind Chill: 60°   Ceiling: Unl
Heat Index: 60°   Visibility: 10mi
Dew Point: 50°   Wind: 15mph
Humidity: 68%   Direction: 190°S
Pressure: 29.97"   Gusts: 21mph
Location:  33.15°N, 96.82°W
Report Text: KADS 290715Z AUTO 19013G18KT 10SM CLR 16/10 A2997 RMK AO2 T01580100
Loading
Personal Weather Stations






























Interactive Weather Map New forecast layout! Learn more

10-Day Weather Forecast

Advertisements
Track Severe Weather on mobile